createdAt,value
2023-01-28T00:00:14.481Z,9.33
2023-01-28T00:02:43.782Z,9.18
2023-01-28T00:05:13.406Z,9.90
2023-01-28T00:07:42.828Z,10.48
2023-01-28T00:10:12.430Z,10.15
2023-01-28T00:12:41.673Z,9.85
2023-01-28T00:15:12.046Z,10.35
2023-01-28T00:17:41.529Z,10.15
2023-01-28T00:20:11.854Z,10.55
2023-01-28T00:22:41.167Z,9.95
2023-01-28T00:25:10.800Z,9.98
2023-01-28T00:27:40.029Z,10.43
2023-01-28T00:30:10.383Z,10.38
2023-01-28T00:32:39.620Z,10.43
2023-01-28T00:35:09.542Z,10.32
2023-01-28T00:37:38.957Z,10.43
2023-01-28T00:40:10.163Z,10.23
2023-01-28T00:42:39.376Z,10.30
2023-01-28T00:45:09.432Z,10.43
2023-01-28T00:47:38.716Z,10.40
2023-01-28T00:50:09.364Z,11.03
2023-01-28T00:52:39.177Z,10.63
2023-01-28T00:55:09.408Z,10.05
2023-01-28T00:57:38.672Z,10.18
2023-01-28T01:00:09.028Z,10.50
2023-01-28T01:02:40.880Z,10.15
2023-01-28T01:05:10.122Z,9.58
2023-01-28T01:07:42.472Z,9.30
2023-01-28T01:10:14.234Z,10.05
2023-01-28T01:12:43.611Z,9.95
2023-01-28T01:15:13.675Z,9.95
2023-01-28T01:17:44.992Z,10.10
2023-01-28T01:20:19.389Z,10.40
2023-01-28T01:22:49.009Z,9.45
2023-01-28T01:25:19.761Z,9.98
2023-01-28T01:27:50.703Z,9.78
2023-01-28T01:30:20.580Z,9.78
2023-01-28T01:32:50.206Z,9.93
2023-01-28T01:35:19.824Z,10.30
2023-01-28T01:37:49.191Z,9.53
2023-01-28T01:40:18.707Z,10.00
2023-01-28T01:42:48.260Z,10.08
2023-01-28T01:45:18.048Z,10.40
2023-01-28T01:47:58.707Z,10.18
2023-01-28T01:50:31.255Z,9.20
2023-01-28T01:53:03.643Z,9.50
2023-01-28T01:55:37.644Z,9.28
2023-01-28T01:58:09.096Z,10.23
2023-01-28T02:03:07.584Z,9.10
2023-01-28T02:05:38.653Z,10.48
2023-01-28T02:08:23.886Z,10.32
2023-01-28T02:11:04.246Z,9.95
2023-01-28T02:13:39.650Z,10.05
2023-01-28T02:16:10.466Z,9.98
2023-01-28T02:18:39.960Z,9.90
2023-01-28T02:21:29.509Z,10.38
2023-01-28T02:24:20.087Z,9.85
2023-01-28T02:26:58.850Z,9.35
2023-01-28T02:29:34.217Z,10.05
2023-01-28T02:32:23.011Z,9.25
2023-01-28T02:34:55.764Z,9.65
2023-01-28T02:37:28.420Z,9.45
2023-01-28T02:40:04.301Z,9.05
2023-01-28T02:42:36.065Z,9.63
2023-01-28T02:45:14.554Z,9.30
2023-01-28T02:47:59.686Z,9.28
2023-01-28T02:50:32.263Z,9.38
2023-01-28T02:53:38.348Z,9.75
2023-01-28T02:56:31.973Z,9.28
2023-01-28T02:59:34.162Z,9.90
2023-01-28T03:02:31.356Z,10.43
2023-01-28T03:05:16.392Z,9.68
2023-01-28T03:07:46.286Z,9.60
2023-01-28T03:10:18.658Z,10.60
2023-01-28T03:13:08.818Z,9.85
2023-01-28T03:16:07.440Z,9.85
2023-01-28T03:19:06.536Z,10.30
2023-01-28T03:22:00.096Z,10.35
2023-01-28T03:24:54.767Z,9.75
2023-01-28T03:27:45.056Z,9.85
2023-01-28T03:30:38.142Z,9.48
2023-01-28T03:33:27.085Z,10.03
2023-01-28T03:36:14.408Z,9.38
2023-01-28T03:38:46.213Z,8.65
2023-01-28T03:41:24.219Z,10.35
2023-01-28T03:43:54.993Z,10.48
2023-01-28T03:46:24.538Z,10.18
2023-01-28T03:48:54.897Z,10.03
2023-01-28T03:51:24.189Z,10.53
2023-01-28T03:53:54.631Z,10.82
2023-01-28T03:56:24.621Z,10.50
2023-01-28T03:58:56.680Z,10.30
2023-01-28T04:01:26.462Z,9.70
2023-01-28T04:03:55.727Z,8.98
2023-01-28T04:06:26.938Z,9.05
2023-01-28T04:09:00.827Z,8.88
2023-01-28T04:11:34.676Z,8.40
2023-01-28T04:14:05.704Z,9.53
2023-01-28T04:16:39.888Z,9.18
2023-01-28T04:19:09.776Z,8.63
2023-01-28T04:21:39.217Z,8.65
2023-01-28T04:24:08.914Z,8.85
2023-01-28T04:26:38.326Z,9.20
2023-01-28T04:29:07.905Z,9.28
2023-01-28T04:31:38.634Z,8.45
2023-01-28T04:34:20.125Z,8.50
2023-01-28T04:36:54.014Z,8.73
2023-01-28T04:39:27.946Z,8.65
2023-01-28T04:42:01.933Z,8.15
2023-01-28T04:44:51.356Z,8.88
2023-01-28T04:47:22.576Z,8.25
2023-01-28T04:49:53.504Z,8.60
2023-01-28T04:52:30.673Z,8.70
2023-01-28T04:55:04.572Z,8.95
2023-01-28T04:57:34.025Z,8.50
2023-01-28T05:00:05.687Z,8.28
2023-01-28T05:02:34.978Z,8.45
2023-01-28T05:05:06.692Z,8.93
2023-01-28T05:07:48.822Z,8.25
2023-01-28T05:10:19.504Z,8.48
2023-01-28T05:12:49.980Z,8.90
2023-01-28T05:15:20.958Z,9.35
2023-01-28T05:17:50.789Z,9.50
2023-01-28T05:20:22.111Z,8.75
2023-01-28T05:22:51.958Z,9.40
2023-01-28T05:25:23.215Z,9.20
2023-01-28T05:27:53.339Z,9.03
2023-01-28T05:30:23.333Z,8.53
2023-01-28T05:32:57.189Z,10.00
2023-01-28T05:35:27.000Z,9.90
2023-01-28T05:37:56.374Z,9.23
2023-01-28T05:40:25.779Z,9.08
2023-01-28T05:42:55.177Z,8.90
2023-01-28T05:45:32.470Z,9.10
2023-01-28T05:48:16.521Z,9.15
2023-01-28T05:50:51.053Z,10.08
2023-01-28T05:53:22.220Z,9.10
2023-01-28T05:55:53.587Z,9.35
2023-01-28T05:58:24.176Z,8.60
2023-01-28T06:00:56.721Z,9.08
2023-01-28T06:03:27.608Z,9.30
2023-01-28T06:05:58.399Z,8.85
2023-01-28T06:08:27.582Z,8.93
2023-01-28T06:10:57.308Z,9.48
2023-01-28T06:13:26.873Z,9.08
2023-01-28T06:16:16.376Z,8.60
2023-01-28T06:18:47.425Z,8.98
2023-01-28T06:21:16.692Z,8.95
2023-01-28T06:23:46.072Z,9.53
2023-01-28T06:26:15.637Z,9.73
2023-01-28T06:28:46.693Z,8.95
2023-01-28T06:31:16.458Z,9.78
2023-01-28T06:33:46.253Z,9.43
2023-01-28T06:36:16.169Z,9.30
2023-01-28T06:38:45.469Z,9.70
2023-01-28T06:41:14.686Z,9.25
2023-01-28T06:43:43.899Z,9.30
2023-01-28T06:46:13.372Z,9.50
2023-01-28T06:48:42.770Z,9.43
2023-01-28T06:51:12.396Z,9.33
2023-01-28T06:53:41.610Z,7.95
2023-01-28T06:56:11.235Z,8.95
2023-01-28T06:58:40.447Z,9.53
2023-01-28T07:01:09.716Z,8.45
2023-01-28T07:03:38.963Z,8.70
2023-01-28T07:06:08.527Z,8.50
2023-01-28T07:08:38.075Z,9.18
2023-01-28T07:11:07.796Z,8.55
2023-01-28T07:13:37.091Z,8.63
2023-01-28T07:16:07.127Z,8.85
2023-01-28T07:18:36.411Z,9.08
2023-01-28T07:21:06.040Z,9.35
2023-01-28T07:23:35.276Z,8.50
2023-01-28T07:26:06.035Z,9.05
2023-01-28T07:28:35.247Z,9.05
2023-01-28T07:31:04.863Z,8.95
2023-01-28T07:33:34.298Z,8.48
2023-01-28T07:36:03.618Z,8.60
2023-01-28T07:38:32.936Z,8.88
2023-01-28T07:41:02.477Z,9.08
2023-01-28T07:43:31.988Z,9.85
2023-01-28T07:46:04.600Z,9.38
2023-01-28T07:48:33.989Z,8.83
2023-01-28T07:51:03.207Z,9.50
2023-01-28T07:53:32.455Z,9.53
2023-01-28T07:56:02.709Z,8.78
2023-01-28T07:58:34.592Z,8.50
2023-01-28T08:01:04.542Z,9.10
2023-01-28T08:03:34.727Z,8.40
2023-01-28T08:06:04.123Z,9.85
2023-01-28T08:08:33.712Z,8.73
2023-01-28T08:11:11.835Z,9.25
2023-01-28T08:13:41.063Z,9.15
2023-01-28T08:16:10.702Z,9.65
2023-01-28T08:18:40.031Z,9.60
2023-01-28T08:21:09.368Z,9.35
2023-01-28T08:23:38.618Z,9.63
2023-01-28T08:26:07.941Z,10.48
2023-01-28T08:28:37.554Z,9.33
2023-01-28T08:31:07.394Z,9.40
2023-01-28T08:33:37.292Z,9.15
2023-01-28T08:36:07.442Z,9.43
2023-01-28T08:38:36.771Z,9.33
2023-01-28T08:41:06.176Z,9.85
2023-01-28T08:43:35.366Z,9.53
2023-01-28T08:46:08.051Z,9.73
2023-01-28T08:48:38.507Z,9.50
2023-01-28T08:51:08.553Z,9.73
2023-01-28T08:53:37.792Z,9.48
2023-01-28T08:56:07.761Z,10.18
2023-01-28T08:58:37.131Z,10.10
2023-01-28T09:01:07.215Z,9.93
2023-01-28T09:03:36.556Z,9.30
2023-01-28T09:06:06.779Z,9.00
2023-01-28T09:08:36.019Z,9.18
2023-01-28T09:11:05.836Z,9.50
2023-01-28T09:13:35.154Z,8.55
2023-01-28T09:16:06.713Z,8.53
2023-01-28T09:18:36.042Z,9.30
2023-01-28T09:21:09.960Z,8.33
2023-01-28T09:23:39.947Z,8.03
2023-01-28T09:26:09.881Z,8.23
2023-01-28T09:28:40.220Z,9.10
2023-01-28T09:31:12.400Z,8.28
2023-01-28T09:33:42.231Z,8.80
2023-01-28T09:36:12.473Z,8.58
2023-01-28T09:38:41.655Z,8.03
2023-01-28T09:41:14.201Z,8.00
2023-01-28T09:46:18.511Z,7.55
2023-01-28T09:48:51.226Z,9.33
2023-01-28T09:51:30.209Z,8.95
2023-01-28T09:54:02.599Z,8.25
2023-01-28T09:56:35.210Z,7.62
2023-01-28T09:59:07.631Z,8.33
2023-01-28T10:01:46.017Z,7.80
2023-01-28T10:04:23.320Z,8.98
2023-01-28T10:07:04.749Z,8.50
2023-01-28T10:10:00.744Z,7.60
2023-01-28T10:12:42.175Z,8.10
2023-01-28T10:15:30.039Z,8.25
2023-01-28T10:18:16.404Z,8.33
2023-01-28T10:20:41.124Z,8.10
2023-01-28T10:23:22.494Z,8.68
2023-01-28T10:25:52.274Z,8.48
2023-01-28T10:28:26.786Z,8.45
2023-01-28T10:30:56.624Z,8.83
2023-01-28T10:33:40.009Z,8.55
2023-01-28T10:36:10.892Z,8.25
2023-01-28T10:38:40.275Z,8.10
2023-01-28T10:41:11.136Z,8.60
2023-01-28T10:43:43.791Z,8.15
2023-01-28T10:46:18.462Z,8.60
2023-01-28T10:49:07.718Z,8.83
2023-01-28T10:51:42.327Z,9.20
2023-01-28T10:54:23.239Z,9.33
2023-01-28T10:56:54.888Z,9.10
2023-01-28T10:59:32.685Z,8.67
2023-01-28T11:02:07.314Z,9.05
2023-01-28T11:04:38.045Z,9.20
2023-01-28T11:07:10.105Z,8.48
2023-01-28T11:09:39.872Z,8.75
2023-01-28T11:12:27.523Z,8.48
2023-01-28T11:15:02.040Z,8.98
2023-01-28T11:17:35.926Z,8.68
2023-01-28T11:20:20.534Z,9.20
2023-01-28T11:22:50.431Z,8.75
2023-01-28T11:25:31.952Z,8.88
2023-01-28T11:28:03.191Z,9.30
2023-01-28T11:30:34.758Z,9.48
2023-01-28T11:33:18.135Z,9.68
2023-01-28T11:35:59.684Z,9.65
2023-01-28T11:38:29.146Z,9.00
2023-01-28T11:41:01.299Z,9.35
2023-01-28T11:43:32.220Z,8.40
2023-01-28T11:46:05.384Z,8.58
2023-01-28T11:48:44.581Z,8.80
2023-01-28T11:51:31.892Z,9.00
2023-01-28T11:54:24.074Z,9.40
2023-01-28T11:57:08.604Z,8.33
2023-01-28T11:59:46.894Z,9.35
2023-01-28T12:02:31.210Z,9.10
2023-01-28T12:05:22.015Z,7.85
2023-01-28T12:07:56.974Z,7.70
2023-01-28T12:10:41.491Z,7.62
2023-01-28T12:13:28.829Z,7.80
2023-01-28T12:16:03.951Z,8.08
2023-01-28T12:18:39.112Z,7.75
2023-01-28T12:21:17.504Z,6.97
2023-01-28T12:24:01.734Z,8.03
2023-01-28T12:26:55.859Z,7.25
2023-01-28T12:29:47.643Z,7.60
2023-01-28T12:32:40.694Z,7.08
2023-01-28T12:35:32.507Z,7.67
2023-01-28T12:38:08.173Z,7.00
2023-01-28T12:40:49.580Z,6.85
2023-01-28T12:43:25.606Z,6.58
2023-01-28T12:46:01.100Z,7.00
2023-01-28T12:48:42.035Z,7.25
2023-01-28T12:51:36.754Z,6.97
2023-01-28T12:54:09.231Z,7.25
2023-01-28T12:56:41.663Z,7.53
2023-01-28T12:59:22.979Z,7.20
2023-01-28T13:02:16.411Z,7.50
2023-01-28T13:04:54.564Z,6.70
2023-01-28T13:07:42.581Z,6.95
2023-01-28T13:10:24.217Z,6.95
2023-01-28T13:12:53.764Z,7.28
2023-01-28T13:15:24.238Z,7.45
2023-01-28T13:17:59.814Z,7.50
2023-01-28T13:20:50.271Z,7.40
2023-01-28T13:23:46.479Z,7.03
2023-01-28T13:26:25.316Z,7.30
2023-01-28T13:28:55.983Z,6.95
2023-01-28T13:31:25.878Z,7.40
2023-01-28T13:33:58.264Z,7.37
2023-01-28T13:36:30.120Z,7.67
2023-01-28T13:39:14.536Z,7.20
2023-01-28T13:41:47.646Z,7.22
2023-01-28T13:44:28.578Z,6.72
2023-01-28T13:47:11.149Z,6.65
2023-01-28T13:49:49.679Z,6.65
2023-01-28T13:52:31.896Z,6.90
2023-01-28T13:55:06.994Z,6.83
2023-01-28T13:57:45.846Z,8.38
2023-01-28T14:00:26.576Z,7.17
2023-01-28T14:03:18.191Z,6.70
2023-01-28T14:06:11.544Z,6.45
2023-01-28T14:09:08.546Z,7.03
2023-01-28T14:12:01.726Z,6.70
2023-01-28T14:14:37.248Z,6.20
2023-01-28T14:17:38.446Z,6.72
2023-01-28T14:20:11.463Z,7.00
2023-01-28T14:22:42.931Z,6.85
2023-01-28T14:25:18.454Z,6.67
2023-01-28T14:27:51.041Z,6.55
2023-01-28T14:32:57.475Z,6.50
2023-01-28T14:35:34.921Z,6.70
2023-01-28T14:38:09.257Z,6.72
2023-01-28T14:40:40.151Z,6.90
2023-01-28T14:43:12.728Z,6.97
2023-01-28T14:48:46.849Z,6.67
2023-01-28T14:51:30.272Z,7.05
2023-01-28T14:54:21.860Z,7.08
2023-01-28T14:57:12.733Z,6.50
2023-01-28T14:59:49.762Z,6.87
2023-01-28T15:02:22.507Z,10.90
2023-01-28T15:04:52.692Z,10.70
2023-01-28T15:07:27.913Z,7.62
2023-01-28T15:10:05.797Z,7.12
2023-01-28T15:12:40.069Z,7.17
2023-01-28T15:15:25.056Z,6.35
2023-01-28T15:17:54.729Z,6.90
2023-01-28T15:20:25.773Z,7.15
2023-01-28T15:22:55.694Z,7.80
2023-01-28T15:25:27.364Z,6.70
2023-01-28T15:27:59.148Z,9.28
2023-01-28T15:30:31.371Z,7.12
2023-01-28T15:33:17.282Z,6.97
2023-01-28T15:35:50.215Z,7.33
2023-01-28T15:38:19.899Z,7.25
2023-01-28T15:41:03.350Z,7.00
2023-01-28T15:43:35.091Z,7.37
2023-01-28T15:46:05.343Z,7.75
2023-01-28T15:48:36.181Z,7.12
2023-01-28T15:51:10.902Z,7.30
2023-01-28T15:53:45.514Z,6.78
2023-01-28T15:56:16.345Z,7.00
2023-01-28T15:58:46.233Z,6.60
2023-01-28T16:01:17.165Z,7.78
2023-01-28T16:03:48.081Z,8.03
2023-01-28T16:06:22.567Z,7.85
2023-01-28T16:08:59.594Z,7.70
2023-01-28T16:11:34.533Z,8.23
2023-01-28T16:14:04.224Z,7.70
2023-01-28T16:16:36.100Z,7.45
2023-01-28T16:19:07.835Z,8.23
2023-01-28T16:21:39.928Z,8.27
2023-01-28T16:24:31.735Z,8.23
2023-01-28T16:27:09.927Z,8.68
2023-01-28T16:29:39.580Z,8.75
2023-01-28T16:32:12.167Z,7.83
2023-01-28T16:34:42.319Z,8.60
2023-01-28T16:37:11.794Z,9.45
2023-01-28T16:39:41.019Z,9.35
2023-01-28T16:42:10.330Z,9.18
2023-01-28T16:44:39.532Z,7.72
2023-01-28T16:47:09.489Z,8.55
2023-01-28T16:49:39.941Z,8.53
2023-01-28T16:52:10.431Z,8.75
2023-01-28T16:54:41.403Z,8.35
2023-01-28T16:57:12.359Z,8.55
2023-01-28T16:59:41.582Z,8.63
2023-01-28T17:02:15.678Z,8.43
2023-01-28T17:04:45.689Z,8.70
2023-01-28T17:07:14.915Z,8.35
2023-01-28T17:09:44.298Z,8.68
2023-01-28T17:12:13.513Z,9.90
2023-01-28T17:14:43.012Z,11.95
2023-01-28T17:17:12.268Z,10.38
2023-01-28T17:19:41.953Z,12.15
2023-01-28T17:22:11.147Z,9.98
2023-01-28T17:24:40.529Z,9.80
2023-01-28T17:27:09.805Z,10.15
2023-01-28T17:29:39.615Z,8.33
2023-01-28T17:32:08.862Z,8.10
2023-01-28T17:34:38.387Z,8.90
2023-01-28T17:37:07.875Z,8.38
2023-01-28T17:39:37.348Z,10.32
2023-01-28T17:42:06.932Z,9.90
2023-01-28T17:44:36.143Z,10.23
2023-01-28T17:47:05.518Z,9.53
2023-01-28T17:49:34.725Z,9.30
2023-01-28T17:52:04.790Z,8.98
2023-01-28T17:54:35.689Z,10.03
2023-01-28T17:57:05.081Z,10.00
2023-01-28T17:59:34.331Z,11.18
2023-01-28T18:02:05.456Z,18.20
2023-01-28T18:04:39.923Z,15.38
2023-01-28T18:07:12.851Z,12.15
2023-01-28T18:09:45.887Z,14.07
2023-01-28T18:12:16.410Z,13.00
2023-01-28T18:14:45.760Z,14.30
2023-01-28T18:17:15.561Z,9.43
2023-01-28T18:19:44.879Z,9.85
2023-01-28T18:22:14.044Z,13.40
2023-01-28T18:24:43.512Z,18.82
2023-01-28T18:27:12.720Z,19.85
2023-01-28T18:29:42.290Z,16.10
2023-01-28T18:32:11.554Z,16.00
2023-01-28T18:34:41.080Z,15.13
2023-01-28T18:37:10.278Z,10.85
2023-01-28T18:39:39.810Z,13.05
2023-01-28T18:42:09.179Z,16.45
2023-01-28T18:44:38.531Z,12.00
2023-01-28T18:47:07.756Z,15.23
2023-01-28T18:49:37.263Z,12.07
2023-01-28T18:52:06.584Z,12.70
2023-01-28T18:54:35.919Z,11.95
2023-01-28T18:57:05.882Z,13.38
2023-01-28T18:59:35.368Z,13.83
2023-01-28T19:02:04.917Z,16.17
2023-01-28T19:04:34.219Z,14.38
2023-01-28T19:07:07.166Z,12.55
2023-01-28T19:09:35.555Z,17.20
2023-01-28T19:12:05.695Z,13.98
2023-01-28T19:14:35.159Z,13.83
2023-01-28T19:17:04.481Z,13.40
2023-01-28T19:19:33.724Z,16.02
2023-01-28T19:22:04.958Z,13.35
2023-01-28T19:24:35.233Z,13.35
2023-01-28T19:27:04.904Z,14.03
2023-01-28T19:29:34.221Z,15.10
2023-01-28T19:32:04.703Z,15.38
2023-01-28T19:34:33.915Z,15.95
2023-01-28T19:37:03.186Z,20.70
2023-01-28T19:39:32.483Z,17.77
2023-01-28T19:42:02.443Z,19.37
2023-01-28T19:44:32.706Z,17.42
2023-01-28T19:47:02.569Z,17.10
2023-01-28T19:49:31.968Z,18.02
2023-01-28T19:52:01.664Z,17.00
2023-01-28T19:54:30.902Z,15.65
2023-01-28T19:57:00.540Z,15.65
2023-01-28T19:59:29.794Z,17.05
2023-01-28T20:01:59.267Z,18.02
2023-01-28T20:04:28.502Z,19.48
2023-01-28T20:06:57.952Z,17.60
2023-01-28T20:09:27.354Z,16.97
2023-01-28T20:11:56.828Z,16.93
2023-01-28T20:14:28.309Z,16.82
2023-01-28T20:16:59.504Z,16.00
2023-01-28T20:19:28.951Z,17.05
2023-01-28T20:21:58.786Z,19.85
2023-01-28T20:24:28.123Z,19.70
2023-01-28T20:26:58.078Z,17.48
2023-01-28T20:29:27.449Z,22.13
2023-01-28T20:32:13.693Z,19.20
2023-01-28T20:34:27.853Z,18.55
2023-01-28T20:36:57.556Z,18.67
2023-01-28T20:39:26.894Z,18.62
2023-01-28T20:41:56.213Z,20.05
2023-01-28T20:44:26.991Z,18.37
2023-01-28T20:46:56.218Z,17.17
2023-01-28T20:49:28.112Z,16.57
2023-01-28T20:51:57.224Z,18.73
2023-01-28T20:54:26.662Z,17.77
2023-01-28T20:56:57.369Z,18.67
2023-01-28T20:59:27.841Z,16.62
2023-01-28T21:01:57.070Z,17.32
2023-01-28T21:04:26.664Z,20.97
2023-01-28T21:06:55.913Z,19.25
2023-01-28T21:09:27.332Z,18.07
2023-01-28T21:11:56.579Z,17.23
2023-01-28T21:14:26.325Z,17.62
2023-01-28T21:16:55.629Z,17.23
2023-01-28T21:19:25.284Z,17.57
2023-01-28T21:21:54.906Z,17.67
2023-01-28T21:24:24.250Z,16.67
2023-01-28T21:26:53.522Z,17.77
2023-01-28T21:29:22.948Z,17.48
2023-01-28T21:31:52.288Z,16.93
2023-01-28T21:34:24.049Z,16.67
2023-01-28T21:36:53.528Z,17.73
2023-01-28T21:39:23.090Z,16.77
2023-01-28T21:41:52.349Z,16.82
2023-01-28T21:44:22.276Z,16.37
2023-01-28T21:46:51.466Z,17.70
2023-01-28T21:49:20.785Z,16.25
2023-01-28T21:51:50.013Z,17.55
2023-01-28T21:54:20.888Z,17.90
2023-01-28T21:56:51.052Z,19.23
2023-01-28T21:59:30.913Z,19.57
2023-01-28T22:02:10.973Z,18.65
2023-01-28T22:04:46.493Z,17.57
2023-01-28T22:07:20.195Z,19.42
2023-01-28T22:09:50.899Z,17.77
2023-01-28T22:12:21.656Z,18.35
2023-01-28T22:14:51.347Z,19.35
2023-01-28T22:17:22.397Z,19.57
2023-01-28T22:19:51.856Z,18.02
2023-01-28T22:22:22.923Z,17.48
2023-01-28T22:24:52.267Z,18.12
2023-01-28T22:27:21.543Z,17.50
2023-01-28T22:29:51.270Z,17.70
2023-01-28T22:32:20.479Z,18.07
2023-01-28T22:34:49.890Z,18.92
2023-01-28T22:37:19.093Z,18.23
2023-01-28T22:39:48.378Z,19.17
2023-01-28T22:42:17.629Z,18.15
2023-01-28T22:44:47.054Z,19.27
2023-01-28T22:47:16.249Z,19.77
2023-01-28T22:49:45.779Z,19.62
2023-01-28T22:52:15.042Z,20.30
2023-01-28T22:54:44.369Z,18.40
2023-01-28T22:57:13.657Z,18.92
2023-01-28T22:59:48.446Z,17.45
2023-01-28T23:02:13.930Z,18.50
2023-01-28T23:04:44.951Z,17.85
2023-01-28T23:07:14.365Z,17.98
2023-01-28T23:09:45.254Z,17.80
2023-01-28T23:12:14.491Z,18.00
2023-01-28T23:15:01.706Z,19.52
2023-01-28T23:17:49.092Z,19.52
2023-01-28T23:20:36.693Z,18.73
2023-01-28T23:23:24.151Z,20.00
2023-01-28T23:25:53.387Z,18.87
2023-01-28T23:28:22.599Z,20.27
2023-01-28T23:30:52.622Z,21.82
2023-01-28T23:33:22.115Z,20.65
2023-01-28T23:35:51.612Z,20.10
2023-01-28T23:38:20.887Z,19.23
2023-01-28T23:40:50.350Z,19.77
2023-01-28T23:43:19.739Z,19.85
2023-01-28T23:45:48.990Z,18.65
2023-01-28T23:48:18.413Z,19.60
2023-01-28T23:50:48.198Z,18.82
2023-01-28T23:53:17.463Z,18.80
2023-01-28T23:55:46.689Z,18.90
2023-01-28T23:58:16.751Z,19.55
